sensor_id;sensor_type;location;lat;lon;timestamp;P1;durP1;ratioP1;P2;durP2;ratioP2
18867;SDS011;9563;49.240;9.088;2024-01-11T05:00:18;53.77;;;21.57;;
18867;SDS011;9563;49.240;9.088;2024-01-11T05:02:45;54.87;;;21.17;;
18867;SDS011;9563;49.240;9.088;2024-01-11T05:05:12;50.13;;;19.53;;
18867;SDS011;9563;49.240;9.088;2024-01-11T05:07:39;44.90;;;19.37;;
18867;SDS011;9563;49.240;9.088;2024-01-11T05:10:07;48.30;;;19.07;;
18867;SDS011;9563;49.240;9.088;2024-01-11T05:12:34;46.07;;;18.60;;
18867;SDS011;9563;49.240;9.088;2024-01-11T05:15:01;43.23;;;17.77;;
18867;SDS011;9563;49.240;9.088;2024-01-11T05:17:30;45.90;;;18.73;;
18867;SDS011;9563;49.240;9.088;2024-01-11T05:19:57;48.70;;;18.53;;
18867;SDS011;9563;49.240;9.088;2024-01-11T05:22:24;43.23;;;18.43;;
18867;SDS011;9563;49.240;9.088;2024-01-11T05:24:51;44.33;;;18.57;;
18867;SDS011;9563;49.240;9.088;2024-01-11T05:27:17;39.97;;;18.73;;
18867;SDS011;9563;49.240;9.088;2024-01-11T05:29:44;44.60;;;18.40;;
18867;SDS011;9563;49.240;9.088;2024-01-11T05:32:11;42.70;;;18.43;;
18867;SDS011;9563;49.240;9.088;2024-01-11T05:34:40;44.90;;;18.00;;
18867;SDS011;9563;49.240;9.088;2024-01-11T05:37:06;42.63;;;17.70;;
18867;SDS011;9563;49.240;9.088;2024-01-11T05:39:33;45.80;;;18.17;;
18867;SDS011;9563;49.240;9.088;2024-01-11T05:42:00;48.17;;;19.53;;
18867;SDS011;9563;49.240;9.088;2024-01-11T05:44:27;44.90;;;18.07;;
18867;SDS011;9563;49.240;9.088;2024-01-11T05:46:54;45.00;;;17.17;;
18867;SDS011;9563;49.240;9.088;2024-01-11T05:49:21;42.13;;;17.13;;
18867;SDS011;9563;49.240;9.088;2024-01-11T05:51:49;46.83;;;18.80;;
18867;SDS011;9563;49.240;9.088;2024-01-11T05:54:16;44.77;;;18.67;;
18867;SDS011;9563;49.240;9.088;2024-01-11T05:56:43;42.83;;;18.13;;
18867;SDS011;9563;49.240;9.088;2024-01-11T05:59:10;42.90;;;19.07;;
18867;SDS011;9563;49.240;9.088;2024-01-11T06:01:40;43.13;;;18.97;;
18867;SDS011;9563;49.240;9.088;2024-01-11T06:04:07;45.23;;;18.03;;
18867;SDS011;9563;49.240;9.088;2024-01-11T06:06:34;45.33;;;19.13;;
18867;SDS011;9563;49.240;9.088;2024-01-11T06:09:02;46.03;;;19.10;;
18867;SDS011;9563;49.240;9.088;2024-01-11T06:11:30;42.57;;;18.53;;
18867;SDS011;9563;49.240;9.088;2024-01-11T06:13:57;40.37;;;17.37;;
18867;SDS011;9563;49.240;9.088;2024-01-11T06:16:23;42.93;;;17.13;;
18867;SDS011;9563;49.240;9.088;2024-01-11T06:18:50;41.97;;;17.97;;
18867;SDS011;9563;49.240;9.088;2024-01-11T06:21:17;47.20;;;19.57;;
18867;SDS011;9563;49.240;9.088;2024-01-11T06:23:44;46.47;;;20.70;;
18867;SDS011;9563;49.240;9.088;2024-01-11T06:26:12;43.50;;;19.87;;
18867;SDS011;9563;49.240;9.088;2024-01-11T06:28:39;46.80;;;18.57;;
18867;SDS011;9563;49.240;9.088;2024-01-11T06:31:06;44.80;;;19.00;;
18867;SDS011;9563;49.240;9.088;2024-01-11T06:33:33;47.70;;;19.03;;
18867;SDS011;9563;49.240;9.088;2024-01-11T06:36:02;49.53;;;19.37;;
18867;SDS011;9563;49.240;9.088;2024-01-11T06:38:29;46.33;;;19.80;;
18867;SDS011;9563;49.240;9.088;2024-01-11T06:40:56;48.70;;;19.10;;
18867;SDS011;9563;49.240;9.088;2024-01-11T06:43:25;43.53;;;19.47;;
18867;SDS011;9563;49.240;9.088;2024-01-11T06:45:53;45.17;;;18.83;;
18867;SDS011;9563;49.240;9.088;2024-01-11T06:48:19;47.80;;;19.97;;
18867;SDS011;9563;49.240;9.088;2024-01-11T06:50:46;51.27;;;20.83;;
18867;SDS011;9563;49.240;9.088;2024-01-11T06:53:13;47.33;;;20.10;;
18867;SDS011;9563;49.240;9.088;2024-01-11T06:55:40;52.67;;;20.60;;
18867;SDS011;9563;49.240;9.088;2024-01-11T06:58:08;51.23;;;19.53;;
18867;SDS011;9563;49.240;9.088;2024-01-11T07:00:37;46.33;;;20.07;;
18867;SDS011;9563;49.240;9.088;2024-01-11T07:03:08;43.07;;;18.60;;
18867;SDS011;9563;49.240;9.088;2024-01-11T07:05:35;48.67;;;19.20;;
18867;SDS011;9563;49.240;9.088;2024-01-11T07:08:02;46.33;;;18.43;;
18867;SDS011;9563;49.240;9.088;2024-01-11T07:10:30;51.50;;;20.27;;
18867;SDS011;9563;49.240;9.088;2024-01-11T07:12:57;57.23;;;20.97;;
18867;SDS011;9563;49.240;9.088;2024-01-11T07:15:24;58.47;;;23.53;;
18867;SDS011;9563;49.240;9.088;2024-01-11T07:17:52;55.57;;;21.20;;
18867;SDS011;9563;49.240;9.088;2024-01-11T07:20:19;56.60;;;20.63;;
18867;SDS011;9563;49.240;9.088;2024-01-11T07:22:46;51.47;;;18.97;;
18867;SDS011;9563;49.240;9.088;2024-01-11T07:25:13;52.70;;;18.97;;
18867;SDS011;9563;49.240;9.088;2024-01-11T07:27:40;48.83;;;19.07;;
18867;SDS011;9563;49.240;9.088;2024-01-11T07:30:07;48.40;;;20.07;;
18867;SDS011;9563;49.240;9.088;2024-01-11T07:32:35;43.40;;;18.50;;
18867;SDS011;9563;49.240;9.088;2024-01-11T07:35:05;44.73;;;18.77;;
18867;SDS011;9563;49.240;9.088;2024-01-11T07:37:32;47.37;;;18.63;;
18867;SDS011;9563;49.240;9.088;2024-01-11T07:39:59;47.10;;;18.20;;
18867;SDS011;9563;49.240;9.088;2024-01-11T07:42:26;44.83;;;18.73;;
18867;SDS011;9563;49.240;9.088;2024-01-11T07:44:54;48.00;;;20.20;;
18867;SDS011;9563;49.240;9.088;2024-01-11T07:47:21;46.60;;;20.03;;
18867;SDS011;9563;49.240;9.088;2024-01-11T07:49:49;41.23;;;17.30;;
18867;SDS011;9563;49.240;9.088;2024-01-11T07:52:17;56.90;;;18.77;;
18867;SDS011;9563;49.240;9.088;2024-01-11T07:54:44;42.37;;;17.73;;
18867;SDS011;9563;49.240;9.088;2024-01-11T07:57:11;37.63;;;17.23;;
18867;SDS011;9563;49.240;9.088;2024-01-11T07:59:38;45.60;;;18.30;;
18867;SDS011;9563;49.240;9.088;2024-01-11T08:02:05;46.97;;;19.23;;
18867;SDS011;9563;49.240;9.088;2024-01-11T08:04:32;45.83;;;19.30;;
18867;SDS011;9563;49.240;9.088;2024-01-11T08:06:59;48.80;;;18.77;;
18867;SDS011;9563;49.240;9.088;2024-01-11T08:09:28;47.60;;;18.20;;
18867;SDS011;9563;49.240;9.088;2024-01-11T08:11:56;39.33;;;18.30;;
18867;SDS011;9563;49.240;9.088;2024-01-11T08:14:23;45.73;;;18.73;;
18867;SDS011;9563;49.240;9.088;2024-01-11T08:16:49;45.77;;;18.47;;
18867;SDS011;9563;49.240;9.088;2024-01-11T08:19:16;49.53;;;19.83;;
18867;SDS011;9563;49.240;9.088;2024-01-11T08:21:43;52.53;;;20.20;;
18867;SDS011;9563;49.240;9.088;2024-01-11T08:24:10;42.20;;;18.17;;
18867;SDS011;9563;49.240;9.088;2024-01-11T08:26:38;46.70;;;18.97;;
18867;SDS011;9563;49.240;9.088;2024-01-11T08:29:06;45.93;;;18.40;;
18867;SDS011;9563;49.240;9.088;2024-01-11T08:31:34;45.67;;;19.60;;
18867;SDS011;9563;49.240;9.088;2024-01-11T08:34:01;46.50;;;18.07;;
18867;SDS011;9563;49.240;9.088;2024-01-11T08:36:30;45.50;;;19.57;;
18867;SDS011;9563;49.240;9.088;2024-01-11T08:38:59;47.27;;;19.13;;
18867;SDS011;9563;49.240;9.088;2024-01-11T08:41:26;42.17;;;18.07;;
18867;SDS011;9563;49.240;9.088;2024-01-11T08:43:54;42.03;;;17.77;;
18867;SDS011;9563;49.240;9.088;2024-01-11T08:46:24;47.87;;;19.33;;
18867;SDS011;9563;49.240;9.088;2024-01-11T08:48:51;47.23;;;18.13;;
18867;SDS011;9563;49.240;9.088;2024-01-11T08:51:19;46.53;;;19.23;;
18867;SDS011;9563;49.240;9.088;2024-01-11T08:53:46;53.87;;;19.80;;
18867;SDS011;9563;49.240;9.088;2024-01-11T08:56:13;47.00;;;19.03;;
18867;SDS011;9563;49.240;9.088;2024-01-11T08:58:41;46.13;;;18.57;;
18867;SDS011;9563;49.240;9.088;2024-01-11T09:01:10;46.93;;;19.43;;
18867;SDS011;9563;49.240;9.088;2024-01-11T09:03:37;47.20;;;19.07;;
18867;SDS011;9563;49.240;9.088;2024-01-11T09:06:04;38.93;;;18.00;;
18867;SDS011;9563;49.240;9.088;2024-01-11T09:08:31;47.70;;;18.93;;
18867;SDS011;9563;49.240;9.088;2024-01-11T09:10:58;46.43;;;19.43;;
18867;SDS011;9563;49.240;9.088;2024-01-11T09:13:26;41.50;;;18.97;;
18867;SDS011;9563;49.240;9.088;2024-01-11T09:15:53;35.97;;;17.53;;
18867;SDS011;9563;49.240;9.088;2024-01-11T09:18:21;42.83;;;18.73;;
18867;SDS011;9563;49.240;9.088;2024-01-11T09:20:48;39.27;;;18.03;;
18867;SDS011;9563;49.240;9.088;2024-01-11T09:23:15;39.40;;;18.00;;
18867;SDS011;9563;49.240;9.088;2024-01-11T09:25:43;36.80;;;17.50;;
18867;SDS011;9563;49.240;9.088;2024-01-11T09:28:10;40.40;;;18.60;;
18867;SDS011;9563;49.240;9.088;2024-01-11T09:30:37;40.80;;;18.07;;
18867;SDS011;9563;49.240;9.088;2024-01-11T09:33:04;40.43;;;18.77;;
18867;SDS011;9563;49.240;9.088;2024-01-11T09:35:32;37.23;;;17.17;;
18867;SDS011;9563;49.240;9.088;2024-01-11T09:37:59;42.40;;;19.73;;
18867;SDS011;9563;49.240;9.088;2024-01-11T09:40:26;35.30;;;17.10;;
18867;SDS011;9563;49.240;9.088;2024-01-11T09:42:53;35.33;;;16.93;;
18867;SDS011;9563;49.240;9.088;2024-01-11T09:45:20;44.27;;;19.20;;
18867;SDS011;9563;49.240;9.088;2024-01-11T09:47:47;40.40;;;18.07;;
18867;SDS011;9563;49.240;9.088;2024-01-11T09:50:17;44.10;;;18.17;;
18867;SDS011;9563;49.240;9.088;2024-01-11T09:52:47;45.27;;;19.83;;
18867;SDS011;9563;49.240;9.088;2024-01-11T09:55:15;39.27;;;18.00;;
18867;SDS011;9563;49.240;9.088;2024-01-11T09:57:43;51.70;;;24.30;;
18867;SDS011;9563;49.240;9.088;2024-01-11T10:00:13;41.93;;;19.87;;
18867;SDS011;9563;49.240;9.088;2024-01-11T10:02:43;41.50;;;18.67;;
18867;SDS011;9563;49.240;9.088;2024-01-11T10:05:11;38.73;;;18.43;;
18867;SDS011;9563;49.240;9.088;2024-01-11T10:07:39;39.93;;;19.30;;
18867;SDS011;9563;49.240;9.088;2024-01-11T10:10:08;36.13;;;17.60;;
18867;SDS011;9563;49.240;9.088;2024-01-11T10:12:35;37.47;;;17.43;;
18867;SDS011;9563;49.240;9.088;2024-01-11T10:15:05;36.20;;;17.63;;
18867;SDS011;9563;49.240;9.088;2024-01-11T10:17:34;37.03;;;18.80;;
18867;SDS011;9563;49.240;9.088;2024-01-11T10:20:02;37.87;;;17.20;;
18867;SDS011;9563;49.240;9.088;2024-01-11T10:22:29;36.30;;;17.80;;
18867;SDS011;9563;49.240;9.088;2024-01-11T10:25:10;40.90;;;18.70;;
18867;SDS011;9563;49.240;9.088;2024-01-11T10:27:38;36.37;;;17.87;;
18867;SDS011;9563;49.240;9.088;2024-01-11T10:30:08;38.83;;;17.80;;
18867;SDS011;9563;49.240;9.088;2024-01-11T10:32:38;42.67;;;18.27;;
18867;SDS011;9563;49.240;9.088;2024-01-11T10:35:05;37.50;;;17.53;;
18867;SDS011;9563;49.240;9.088;2024-01-11T10:37:32;36.23;;;17.83;;
18867;SDS011;9563;49.240;9.088;2024-01-11T10:40:02;37.17;;;19.13;;
18867;SDS011;9563;49.240;9.088;2024-01-11T10:42:36;38.03;;;18.47;;
18867;SDS011;9563;49.240;9.088;2024-01-11T10:45:07;37.47;;;18.20;;
18867;SDS011;9563;49.240;9.088;2024-01-11T10:47:41;39.33;;;19.33;;
18867;SDS011;9563;49.240;9.088;2024-01-11T10:50:16;36.73;;;18.47;;
18867;SDS011;9563;49.240;9.088;2024-01-11T10:52:47;37.90;;;19.23;;
18867;SDS011;9563;49.240;9.088;2024-01-11T10:55:22;33.67;;;17.77;;
18867;SDS011;9563;49.240;9.088;2024-01-11T10:57:52;37.77;;;19.33;;
18867;SDS011;9563;49.240;9.088;2024-01-11T11:00:21;34.27;;;17.77;;
18867;SDS011;9563;49.240;9.088;2024-01-11T11:02:49;42.00;;;21.93;;
18867;SDS011;9563;49.240;9.088;2024-01-11T11:05:18;36.77;;;18.90;;
18867;SDS011;9563;49.240;9.088;2024-01-11T11:07:46;38.83;;;18.67;;
18867;SDS011;9563;49.240;9.088;2024-01-11T11:10:14;39.77;;;18.10;;
18867;SDS011;9563;49.240;9.088;2024-01-11T11:12:45;39.07;;;20.00;;
18867;SDS011;9563;49.240;9.088;2024-01-11T11:15:13;36.93;;;17.90;;
18867;SDS011;9563;49.240;9.088;2024-01-11T11:17:41;36.33;;;16.80;;
18867;SDS011;9563;49.240;9.088;2024-01-11T11:20:10;40.80;;;19.53;;
18867;SDS011;9563;49.240;9.088;2024-01-11T11:22:40;35.43;;;17.47;;
18867;SDS011;9563;49.240;9.088;2024-01-11T11:25:08;39.43;;;18.10;;
18867;SDS011;9563;49.240;9.088;2024-01-11T11:27:35;38.43;;;17.83;;
18867;SDS011;9563;49.240;9.088;2024-01-11T11:30:03;51.20;;;22.57;;
18867;SDS011;9563;49.240;9.088;2024-01-11T11:32:38;40.17;;;18.43;;
18867;SDS011;9563;49.240;9.088;2024-01-11T11:35:09;36.90;;;16.90;;
18867;SDS011;9563;49.240;9.088;2024-01-11T11:37:36;38.47;;;18.37;;
18867;SDS011;9563;49.240;9.088;2024-01-11T11:40:04;38.90;;;17.47;;
18867;SDS011;9563;49.240;9.088;2024-01-11T11:42:33;33.83;;;18.30;;
18867;SDS011;9563;49.240;9.088;2024-01-11T11:45:01;34.93;;;17.53;;
18867;SDS011;9563;49.240;9.088;2024-01-11T11:47:32;36.20;;;16.43;;
18867;SDS011;9563;49.240;9.088;2024-01-11T11:50:09;36.97;;;16.93;;
18867;SDS011;9563;49.240;9.088;2024-01-11T11:52:37;39.47;;;17.27;;
18867;SDS011;9563;49.240;9.088;2024-01-11T11:55:06;32.77;;;17.03;;
18867;SDS011;9563;49.240;9.088;2024-01-11T11:57:34;37.67;;;17.10;;
18867;SDS011;9563;49.240;9.088;2024-01-11T12:00:02;38.90;;;17.63;;
18867;SDS011;9563;49.240;9.088;2024-01-11T12:02:31;37.23;;;17.80;;
18867;SDS011;9563;49.240;9.088;2024-01-11T12:05:01;34.90;;;17.30;;
18867;SDS011;9563;49.240;9.088;2024-01-11T12:07:30;35.40;;;17.80;;
18867;SDS011;9563;49.240;9.088;2024-01-11T12:09:58;44.33;;;18.13;;
18867;SDS011;9563;49.240;9.088;2024-01-11T12:12:25;38.93;;;16.80;;
18867;SDS011;9563;49.240;9.088;2024-01-11T12:14:53;37.30;;;17.07;;
18867;SDS011;9563;49.240;9.088;2024-01-11T12:17:20;38.87;;;18.07;;
18867;SDS011;9563;49.240;9.088;2024-01-11T12:19:47;34.23;;;16.07;;
18867;SDS011;9563;49.240;9.088;2024-01-11T12:22:14;35.30;;;17.03;;
18867;SDS011;9563;49.240;9.088;2024-01-11T12:24:42;35.43;;;16.50;;
18867;SDS011;9563;49.240;9.088;2024-01-11T12:27:09;34.27;;;17.20;;
18867;SDS011;9563;49.240;9.088;2024-01-11T12:29:38;34.40;;;18.13;;
18867;SDS011;9563;49.240;9.088;2024-01-11T12:32:05;36.40;;;17.87;;
18867;SDS011;9563;49.240;9.088;2024-01-11T12:34:32;34.77;;;16.50;;
18867;SDS011;9563;49.240;9.088;2024-01-11T12:37:00;34.80;;;17.00;;
18867;SDS011;9563;49.240;9.088;2024-01-11T12:39:30;32.73;;;16.13;;
18867;SDS011;9563;49.240;9.088;2024-01-11T12:41:59;36.10;;;16.97;;
18867;SDS011;9563;49.240;9.088;2024-01-11T12:44:26;39.50;;;18.33;;
18867;SDS011;9563;49.240;9.088;2024-01-11T12:46:53;42.13;;;18.20;;
18867;SDS011;9563;49.240;9.088;2024-01-11T12:49:21;35.57;;;16.83;;
18867;SDS011;9563;49.240;9.088;2024-01-11T12:51:49;37.83;;;18.00;;
18867;SDS011;9563;49.240;9.088;2024-01-11T12:54:16;32.53;;;16.53;;
18867;SDS011;9563;49.240;9.088;2024-01-11T12:56:44;33.43;;;16.47;;
18867;SDS011;9563;49.240;9.088;2024-01-11T12:59:13;37.60;;;16.97;;
18867;SDS011;9563;49.240;9.088;2024-01-11T13:01:41;31.37;;;16.47;;
18867;SDS011;9563;49.240;9.088;2024-01-11T13:04:09;33.87;;;16.07;;
18867;SDS011;9563;49.240;9.088;2024-01-11T13:06:36;31.53;;;17.23;;
18867;SDS011;9563;49.240;9.088;2024-01-11T13:09:03;31.63;;;15.23;;
18867;SDS011;9563;49.240;9.088;2024-01-11T13:11:30;33.77;;;17.40;;
18867;SDS011;9563;49.240;9.088;2024-01-11T13:13:57;31.13;;;15.87;;
18867;SDS011;9563;49.240;9.088;2024-01-11T13:16:31;35.37;;;18.00;;
18867;SDS011;9563;49.240;9.088;2024-01-11T13:18:58;37.80;;;18.07;;
18867;SDS011;9563;49.240;9.088;2024-01-11T13:21:25;34.73;;;17.03;;
18867;SDS011;9563;49.240;9.088;2024-01-11T13:23:52;36.03;;;16.43;;
18867;SDS011;9563;49.240;9.088;2024-01-11T13:26:19;30.17;;;14.87;;
18867;SDS011;9563;49.240;9.088;2024-01-11T13:28:46;35.67;;;17.30;;
18867;SDS011;9563;49.240;9.088;2024-01-11T13:31:13;37.10;;;17.47;;
18867;SDS011;9563;49.240;9.088;2024-01-11T13:33:41;31.13;;;15.33;;
18867;SDS011;9563;49.240;9.088;2024-01-11T13:36:08;31.80;;;15.57;;
18867;SDS011;9563;49.240;9.088;2024-01-11T13:38:35;32.60;;;16.77;;
18867;SDS011;9563;49.240;9.088;2024-01-11T13:41:02;33.17;;;16.47;;
18867;SDS011;9563;49.240;9.088;2024-01-11T13:43:32;42.03;;;17.43;;
18867;SDS011;9563;49.240;9.088;2024-01-11T13:46:00;28.20;;;14.97;;
18867;SDS011;9563;49.240;9.088;2024-01-11T13:48:29;33.93;;;17.63;;
18867;SDS011;9563;49.240;9.088;2024-01-11T13:50:58;31.37;;;16.40;;
18867;SDS011;9563;49.240;9.088;2024-01-11T13:53:28;32.83;;;15.37;;
18867;SDS011;9563;49.240;9.088;2024-01-11T13:55:54;35.47;;;17.07;;
18867;SDS011;9563;49.240;9.088;2024-01-11T13:58:21;35.10;;;16.23;;
18867;SDS011;9563;49.240;9.088;2024-01-11T14:00:48;35.10;;;17.70;;
18867;SDS011;9563;49.240;9.088;2024-01-11T14:03:15;36.50;;;16.47;;
18867;SDS011;9563;49.240;9.088;2024-01-11T14:05:42;33.50;;;15.67;;
18867;SDS011;9563;49.240;9.088;2024-01-11T14:08:11;32.93;;;15.80;;
18867;SDS011;9563;49.240;9.088;2024-01-11T14:10:38;37.13;;;18.83;;
18867;SDS011;9563;49.240;9.088;2024-01-11T14:13:04;33.20;;;16.27;;
18867;SDS011;9563;49.240;9.088;2024-01-11T14:15:31;32.17;;;15.17;;
18867;SDS011;9563;49.240;9.088;2024-01-11T14:17:58;38.27;;;17.30;;
18867;SDS011;9563;49.240;9.088;2024-01-11T14:20:25;33.10;;;16.63;;
18867;SDS011;9563;49.240;9.088;2024-01-11T14:22:52;32.83;;;15.77;;
18867;SDS011;9563;49.240;9.088;2024-01-11T14:25:22;32.13;;;16.33;;
18867;SDS011;9563;49.240;9.088;2024-01-11T14:27:51;33.90;;;15.07;;
18867;SDS011;9563;49.240;9.088;2024-01-11T14:30:18;35.70;;;14.87;;
18867;SDS011;9563;49.240;9.088;2024-01-11T14:32:47;35.00;;;16.07;;
18867;SDS011;9563;49.240;9.088;2024-01-11T14:35:14;38.87;;;15.83;;
18867;SDS011;9563;49.240;9.088;2024-01-11T14:37:42;29.37;;;14.90;;
18867;SDS011;9563;49.240;9.088;2024-01-11T14:40:10;33.87;;;14.67;;
18867;SDS011;9563;49.240;9.088;2024-01-11T14:42:39;33.37;;;14.53;;
18867;SDS011;9563;49.240;9.088;2024-01-11T14:45:06;30.53;;;13.90;;
18867;SDS011;9563;49.240;9.088;2024-01-11T14:47:34;28.67;;;14.23;;
18867;SDS011;9563;49.240;9.088;2024-01-11T14:50:01;31.57;;;15.00;;
18867;SDS011;9563;49.240;9.088;2024-01-11T14:52:29;36.57;;;15.50;;
18867;SDS011;9563;49.240;9.088;2024-01-11T14:54:57;33.40;;;15.90;;
18867;SDS011;9563;49.240;9.088;2024-01-11T14:57:23;34.27;;;16.37;;
18867;SDS011;9563;49.240;9.088;2024-01-11T14:59:52;33.67;;;15.70;;
18867;SDS011;9563;49.240;9.088;2024-01-11T15:02:19;32.43;;;15.77;;
18867;SDS011;9563;49.240;9.088;2024-01-11T15:04:46;35.50;;;15.83;;
18867;SDS011;9563;49.240;9.088;2024-01-11T15:07:13;33.57;;;14.83;;
18867;SDS011;9563;49.240;9.088;2024-01-11T15:09:40;32.73;;;14.83;;
18867;SDS011;9563;49.240;9.088;2024-01-11T15:12:08;35.00;;;15.77;;
18867;SDS011;9563;49.240;9.088;2024-01-11T15:14:35;31.13;;;14.50;;
18867;SDS011;9563;49.240;9.088;2024-01-11T15:17:03;32.60;;;15.27;;
18867;SDS011;9563;49.240;9.088;2024-01-11T15:19:30;36.40;;;16.07;;
18867;SDS011;9563;49.240;9.088;2024-01-11T15:21:57;38.70;;;16.90;;
18867;SDS011;9563;49.240;9.088;2024-01-11T15:24:24;38.97;;;16.40;;
18867;SDS011;9563;49.240;9.088;2024-01-11T15:26:53;37.93;;;15.80;;
18867;SDS011;9563;49.240;9.088;2024-01-11T15:29:20;35.67;;;16.63;;
18867;SDS011;9563;49.240;9.088;2024-01-11T15:31:47;35.20;;;15.93;;
18867;SDS011;9563;49.240;9.088;2024-01-11T15:34:16;40.63;;;15.37;;
18867;SDS011;9563;49.240;9.088;2024-01-11T15:36:43;32.97;;;15.93;;
18867;SDS011;9563;49.240;9.088;2024-01-11T15:39:10;31.07;;;15.70;;
18867;SDS011;9563;49.240;9.088;2024-01-11T15:41:37;32.73;;;14.67;;
18867;SDS011;9563;49.240;9.088;2024-01-11T15:44:04;34.53;;;15.40;;
18867;SDS011;9563;49.240;9.088;2024-01-11T15:46:31;35.40;;;16.27;;
18867;SDS011;9563;49.240;9.088;2024-01-11T15:48:58;45.73;;;17.37;;
18867;SDS011;9563;49.240;9.088;2024-01-11T15:51:26;34.83;;;16.30;;
18867;SDS011;9563;49.240;9.088;2024-01-11T15:53:53;34.30;;;16.77;;
18867;SDS011;9563;49.240;9.088;2024-01-11T15:56:20;38.40;;;16.30;;
18867;SDS011;9563;49.240;9.088;2024-01-11T15:58:47;35.50;;;15.73;;
18867;SDS011;9563;49.240;9.088;2024-01-11T16:01:14;31.27;;;15.27;;
18867;SDS011;9563;49.240;9.088;2024-01-11T16:03:41;37.47;;;16.30;;
18867;SDS011;9563;49.240;9.088;2024-01-11T16:06:09;45.47;;;16.60;;
18867;SDS011;9563;49.240;9.088;2024-01-11T16:08:38;38.00;;;16.03;;
18867;SDS011;9563;49.240;9.088;2024-01-11T16:11:05;45.17;;;17.10;;
18867;SDS011;9563;49.240;9.088;2024-01-11T16:13:32;41.00;;;16.60;;
18867;SDS011;9563;49.240;9.088;2024-01-11T16:15:59;36.67;;;15.73;;
18867;SDS011;9563;49.240;9.088;2024-01-11T16:18:26;43.20;;;16.30;;
18867;SDS011;9563;49.240;9.088;2024-01-11T16:20:53;33.90;;;15.00;;
18867;SDS011;9563;49.240;9.088;2024-01-11T16:23:20;39.37;;;17.53;;
18867;SDS011;9563;49.240;9.088;2024-01-11T16:25:49;45.67;;;16.80;;
18867;SDS011;9563;49.240;9.088;2024-01-11T16:28:16;45.00;;;16.33;;
18867;SDS011;9563;49.240;9.088;2024-01-11T16:30:43;41.10;;;18.00;;
18867;SDS011;9563;49.240;9.088;2024-01-11T16:33:11;36.20;;;14.93;;
18867;SDS011;9563;49.240;9.088;2024-01-11T16:35:38;39.20;;;14.90;;
18867;SDS011;9563;49.240;9.088;2024-01-11T16:38:05;35.43;;;14.87;;
18867;SDS011;9563;49.240;9.088;2024-01-11T16:40:32;40.23;;;15.83;;
18867;SDS011;9563;49.240;9.088;2024-01-11T16:43:00;36.53;;;16.67;;
18867;SDS011;9563;49.240;9.088;2024-01-11T16:45:27;38.47;;;16.03;;
18867;SDS011;9563;49.240;9.088;2024-01-11T16:47:56;50.43;;;16.67;;
18867;SDS011;9563;49.240;9.088;2024-01-11T16:50:23;33.00;;;14.67;;
18867;SDS011;9563;49.240;9.088;2024-01-11T16:52:50;42.17;;;16.10;;
18867;SDS011;9563;49.240;9.088;2024-01-11T16:55:17;41.27;;;16.53;;
18867;SDS011;9563;49.240;9.088;2024-01-11T16:57:44;44.63;;;17.67;;
18867;SDS011;9563;49.240;9.088;2024-01-11T17:00:13;42.27;;;18.00;;
18867;SDS011;9563;49.240;9.088;2024-01-11T17:02:42;37.33;;;16.70;;
18867;SDS011;9563;49.240;9.088;2024-01-11T17:05:09;39.23;;;17.00;;
18867;SDS011;9563;49.240;9.088;2024-01-11T17:07:35;37.77;;;16.97;;
18867;SDS011;9563;49.240;9.088;2024-01-11T17:10:03;39.27;;;15.93;;
18867;SDS011;9563;49.240;9.088;2024-01-11T17:12:30;37.63;;;15.80;;
18867;SDS011;9563;49.240;9.088;2024-01-11T17:14:57;41.00;;;16.70;;
18867;SDS011;9563;49.240;9.088;2024-01-11T17:17:25;41.10;;;16.70;;
18867;SDS011;9563;49.240;9.088;2024-01-11T17:19:52;41.47;;;16.87;;
18867;SDS011;9563;49.240;9.088;2024-01-11T17:22:19;35.90;;;16.33;;
18867;SDS011;9563;49.240;9.088;2024-01-11T17:24:47;39.37;;;17.20;;
18867;SDS011;9563;49.240;9.088;2024-01-11T17:27:13;40.30;;;18.53;;
18867;SDS011;9563;49.240;9.088;2024-01-11T17:29:41;41.73;;;17.37;;
18867;SDS011;9563;49.240;9.088;2024-01-11T17:32:08;40.90;;;16.60;;
18867;SDS011;9563;49.240;9.088;2024-01-11T17:34:36;37.83;;;17.43;;
18867;SDS011;9563;49.240;9.088;2024-01-11T17:37:03;42.60;;;17.57;;
18867;SDS011;9563;49.240;9.088;2024-01-11T17:39:30;43.90;;;18.73;;
18867;SDS011;9563;49.240;9.088;2024-01-11T17:41:58;43.23;;;19.40;;
18867;SDS011;9563;49.240;9.088;2024-01-11T17:44:25;38.47;;;17.70;;
18867;SDS011;9563;49.240;9.088;2024-01-11T17:46:52;42.47;;;18.23;;
18867;SDS011;9563;49.240;9.088;2024-01-11T17:49:19;38.43;;;17.17;;
18867;SDS011;9563;49.240;9.088;2024-01-11T17:51:47;49.00;;;17.90;;
18867;SDS011;9563;49.240;9.088;2024-01-11T17:54:20;34.53;;;17.50;;
18867;SDS011;9563;49.240;9.088;2024-01-11T17:56:48;39.97;;;17.47;;
18867;SDS011;9563;49.240;9.088;2024-01-11T17:59:15;44.93;;;17.23;;
18867;SDS011;9563;49.240;9.088;2024-01-11T18:01:41;40.87;;;18.17;;
18867;SDS011;9563;49.240;9.088;2024-01-11T18:04:08;42.40;;;18.27;;
18867;SDS011;9563;49.240;9.088;2024-01-11T18:06:36;39.87;;;17.60;;
18867;SDS011;9563;49.240;9.088;2024-01-11T18:09:05;45.20;;;18.80;;
18867;SDS011;9563;49.240;9.088;2024-01-11T18:11:33;50.17;;;19.47;;
18867;SDS011;9563;49.240;9.088;2024-01-11T18:13:59;43.00;;;18.77;;
18867;SDS011;9563;49.240;9.088;2024-01-11T18:16:27;43.03;;;18.60;;
18867;SDS011;9563;49.240;9.088;2024-01-11T18:18:54;43.10;;;18.37;;
18867;SDS011;9563;49.240;9.088;2024-01-11T18:21:21;44.17;;;19.43;;
18867;SDS011;9563;49.240;9.088;2024-01-11T18:23:48;41.33;;;17.40;;
18867;SDS011;9563;49.240;9.088;2024-01-11T18:26:16;42.57;;;17.97;;
18867;SDS011;9563;49.240;9.088;2024-01-11T18:28:43;46.67;;;19.70;;
18867;SDS011;9563;49.240;9.088;2024-01-11T18:31:13;50.60;;;20.17;;
18867;SDS011;9563;49.240;9.088;2024-01-11T18:33:41;55.43;;;19.93;;
18867;SDS011;9563;49.240;9.088;2024-01-11T18:36:10;44.57;;;18.47;;
18867;SDS011;9563;49.240;9.088;2024-01-11T18:38:37;41.87;;;18.23;;
18867;SDS011;9563;49.240;9.088;2024-01-11T18:41:04;38.73;;;16.87;;
18867;SDS011;9563;49.240;9.088;2024-01-11T18:43:33;45.40;;;18.37;;
18867;SDS011;9563;49.240;9.088;2024-01-11T18:46:00;43.50;;;18.40;;
18867;SDS011;9563;49.240;9.088;2024-01-11T18:48:27;43.80;;;18.43;;
18867;SDS011;9563;49.240;9.088;2024-01-11T18:50:54;39.63;;;18.33;;
18867;SDS011;9563;49.240;9.088;2024-01-11T18:53:21;50.13;;;21.23;;
18867;SDS011;9563;49.240;9.088;2024-01-11T18:55:48;49.20;;;19.33;;
18867;SDS011;9563;49.240;9.088;2024-01-11T18:58:15;50.27;;;21.30;;
18867;SDS011;9563;49.240;9.088;2024-01-11T19:00:44;54.60;;;21.47;;
18867;SDS011;9563;49.240;9.088;2024-01-11T19:03:11;45.97;;;19.13;;
18867;SDS011;9563;49.240;9.088;2024-01-11T19:05:40;61.90;;;26.37;;
18867;SDS011;9563;49.240;9.088;2024-01-11T19:08:07;56.27;;;25.43;;
18867;SDS011;9563;49.240;9.088;2024-01-11T19:10:34;57.93;;;24.20;;
18867;SDS011;9563;49.240;9.088;2024-01-11T19:13:01;58.67;;;24.07;;
18867;SDS011;9563;49.240;9.088;2024-01-11T19:15:28;53.77;;;22.80;;
18867;SDS011;9563;49.240;9.088;2024-01-11T19:17:56;57.03;;;22.37;;
18867;SDS011;9563;49.240;9.088;2024-01-11T19:20:23;45.43;;;21.20;;
18867;SDS011;9563;49.240;9.088;2024-01-11T19:22:51;48.90;;;21.87;;
18867;SDS011;9563;49.240;9.088;2024-01-11T19:25:17;48.57;;;21.63;;
18867;SDS011;9563;49.240;9.088;2024-01-11T19:27:45;52.13;;;21.10;;
18867;SDS011;9563;49.240;9.088;2024-01-11T19:30:12;51.53;;;20.93;;
18867;SDS011;9563;49.240;9.088;2024-01-11T19:32:39;43.33;;;19.47;;
18867;SDS011;9563;49.240;9.088;2024-01-11T19:35:08;54.70;;;22.23;;